sensor_id;sensor_type;location;lat;lon;timestamp;temperature;humidity
10245;DHT22;5167;52.164;10.530;2023-05-14T00:02:19;15.30;5.00
10245;DHT22;5167;52.164;10.530;2023-05-14T00:04:44;15.20;5.00
10245;DHT22;5167;52.164;10.530;2023-05-14T00:07:10;15.20;5.00
10245;DHT22;5167;52.164;10.530;2023-05-14T00:09:36;15.20;5.00
10245;DHT22;5167;52.164;10.530;2023-05-14T00:12:01;15.20;5.00
10245;DHT22;5167;52.164;10.530;2023-05-14T00:14:27;15.10;5.00
10245;DHT22;5167;52.164;10.530;2023-05-14T00:16:52;15.10;5.00
10245;DHT22;5167;52.164;10.530;2023-05-14T00:19:18;15.10;5.00
10245;DHT22;5167;52.164;10.530;2023-05-14T00:21:43;15.10;5.00
10245;DHT22;5167;52.164;10.530;2023-05-14T00:24:08;15.00;5.00
10245;DHT22;5167;52.164;10.530;2023-05-14T00:26:34;15.10;5.00
10245;DHT22;5167;52.164;10.530;2023-05-14T00:28:59;15.00;5.00
10245;DHT22;5167;52.164;10.530;2023-05-14T00:31:25;15.00;5.00
10245;DHT22;5167;52.164;10.530;2023-05-14T00:33:51;14.90;5.00
10245;DHT22;5167;52.164;10.530;2023-05-14T00:36:16;14.90;5.00
10245;DHT22;5167;52.164;10.530;2023-05-14T00:38:42;14.90;5.00
10245;DHT22;5167;52.164;10.530;2023-05-14T00:41:07;14.90;5.00
10245;DHT22;5167;52.164;10.530;2023-05-14T00:43:33;15.10;5.10
10245;DHT22;5167;52.164;10.530;2023-05-14T00:45:58;14.90;5.00
10245;DHT22;5167;52.164;10.530;2023-05-14T00:48:24;14.80;5.00
10245;DHT22;5167;52.164;10.530;2023-05-14T00:50:50;14.80;5.00
10245;DHT22;5167;52.164;10.530;2023-05-14T00:53:17;14.80;5.40
10245;DHT22;5167;52.164;10.530;2023-05-14T00:55:44;14.70;5.20
10245;DHT22;5167;52.164;10.530;2023-05-14T00:58:12;14.80;5.30
10245;DHT22;5167;52.164;10.530;2023-05-14T01:00:39;14.70;5.10
10245;DHT22;5167;52.164;10.530;2023-05-14T01:03:06;14.80;6.10
10245;DHT22;5167;52.164;10.530;2023-05-14T01:05:44;14.70;5.70
10245;DHT22;5167;52.164;10.530;2023-05-14T01:08:33;14.70;6.80
10245;DHT22;5167;52.164;10.530;2023-05-14T01:11:07;14.60;6.20
10245;DHT22;5167;52.164;10.530;2023-05-14T01:13:46;14.70;6.20
10245;DHT22;5167;52.164;10.530;2023-05-14T01:16:16;14.60;6.30
10245;DHT22;5167;52.164;10.530;2023-05-14T01:18:43;14.70;6.70
10245;DHT22;5167;52.164;10.530;2023-05-14T01:21:28;14.50;6.20
10245;DHT22;5167;52.164;10.530;2023-05-14T01:23:58;14.60;6.70
10245;DHT22;5167;52.164;10.530;2023-05-14T01:26:23;14.50;7.20
10245;DHT22;5167;52.164;10.530;2023-05-14T01:28:50;14.50;6.70
10245;DHT22;5167;52.164;10.530;2023-05-14T01:31:17;14.40;7.30
10245;DHT22;5167;52.164;10.530;2023-05-14T01:33:48;14.40;8.10
10245;DHT22;5167;52.164;10.530;2023-05-14T01:36:14;14.40;8.50
10245;DHT22;5167;52.164;10.530;2023-05-14T01:38:39;14.50;8.60
10245;DHT22;5167;52.164;10.530;2023-05-14T01:41:10;14.40;9.40
10245;DHT22;5167;52.164;10.530;2023-05-14T01:43:37;14.30;9.10
10245;DHT22;5167;52.164;10.530;2023-05-14T01:46:03;14.30;9.10
10245;DHT22;5167;52.164;10.530;2023-05-14T01:48:29;14.20;8.90
10245;DHT22;5167;52.164;10.530;2023-05-14T01:50:54;14.20;10.40
10245;DHT22;5167;52.164;10.530;2023-05-14T01:53:20;14.10;9.40
10245;DHT22;5167;52.164;10.530;2023-05-14T01:55:45;14.10;9.40
10245;DHT22;5167;52.164;10.530;2023-05-14T01:58:11;14.10;10.10
10245;DHT22;5167;52.164;10.530;2023-05-14T02:00:36;14.20;10.70
10245;DHT22;5167;52.164;10.530;2023-05-14T02:03:02;14.00;10.60
10245;DHT22;5167;52.164;10.530;2023-05-14T02:05:28;14.00;10.50
10245;DHT22;5167;52.164;10.530;2023-05-14T02:07:53;14.00;11.30
10245;DHT22;5167;52.164;10.530;2023-05-14T02:10:19;14.10;11.10
10245;DHT22;5167;52.164;10.530;2023-05-14T02:12:44;13.90;11.90
10245;DHT22;5167;52.164;10.530;2023-05-14T02:15:10;13.90;11.40
10245;DHT22;5167;52.164;10.530;2023-05-14T02:17:36;13.90;12.10
10245;DHT22;5167;52.164;10.530;2023-05-14T02:20:01;13.80;12.60
10245;DHT22;5167;52.164;10.530;2023-05-14T02:22:27;13.80;12.10
10245;DHT22;5167;52.164;10.530;2023-05-14T02:24:52;13.70;12.20
10245;DHT22;5167;52.164;10.530;2023-05-14T02:27:18;13.70;11.50
10245;DHT22;5167;52.164;10.530;2023-05-14T02:29:43;13.60;13.20
10245;DHT22;5167;52.164;10.530;2023-05-14T02:32:09;13.70;13.10
10245;DHT22;5167;52.164;10.530;2023-05-14T02:34:34;13.60;12.80
10245;DHT22;5167;52.164;10.530;2023-05-14T02:37:00;13.60;13.10
10245;DHT22;5167;52.164;10.530;2023-05-14T02:39:25;13.70;13.70
10245;DHT22;5167;52.164;10.530;2023-05-14T02:41:51;13.60;14.50
10245;DHT22;5167;52.164;10.530;2023-05-14T02:44:16;13.60;13.90
10245;DHT22;5167;52.164;10.530;2023-05-14T02:46:42;13.50;13.00
10245;DHT22;5167;52.164;10.530;2023-05-14T02:49:08;13.50;13.80
10245;DHT22;5167;52.164;10.530;2023-05-14T02:51:33;13.50;13.30
10245;DHT22;5167;52.164;10.530;2023-05-14T02:53:58;13.60;14.90
10245;DHT22;5167;52.164;10.530;2023-05-14T02:56:24;13.60;14.20
10245;DHT22;5167;52.164;10.530;2023-05-14T02:58:50;13.50;14.30
10245;DHT22;5167;52.164;10.530;2023-05-14T03:01:16;13.60;14.30
10245;DHT22;5167;52.164;10.530;2023-05-14T03:03:43;13.60;14.50
10245;DHT22;5167;52.164;10.530;2023-05-14T03:06:08;13.50;14.40
10245;DHT22;5167;52.164;10.530;2023-05-14T03:08:33;13.50;14.70
10245;DHT22;5167;52.164;10.530;2023-05-14T03:10:59;13.40;14.50
10245;DHT22;5167;52.164;10.530;2023-05-14T03:13:24;13.40;13.50
10245;DHT22;5167;52.164;10.530;2023-05-14T03:15:50;13.30;14.50
10245;DHT22;5167;52.164;10.530;2023-05-14T03:18:19;13.30;14.80
10245;DHT22;5167;52.164;10.530;2023-05-14T03:20:44;13.20;14.70
10245;DHT22;5167;52.164;10.530;2023-05-14T03:23:10;13.10;14.30
10245;DHT22;5167;52.164;10.530;2023-05-14T03:25:35;13.10;14.40
10245;DHT22;5167;52.164;10.530;2023-05-14T03:28:02;13.10;14.60
10245;DHT22;5167;52.164;10.530;2023-05-14T03:30:27;13.00;15.10
10245;DHT22;5167;52.164;10.530;2023-05-14T03:32:53;13.00;14.80
10245;DHT22;5167;52.164;10.530;2023-05-14T03:35:18;12.90;15.30
10245;DHT22;5167;52.164;10.530;2023-05-14T03:37:44;12.90;15.00
10245;DHT22;5167;52.164;10.530;2023-05-14T03:40:10;12.90;15.80
10245;DHT22;5167;52.164;10.530;2023-05-14T03:42:35;12.90;15.70
10245;DHT22;5167;52.164;10.530;2023-05-14T03:45:01;12.90;16.80
10245;DHT22;5167;52.164;10.530;2023-05-14T03:47:26;12.80;16.80
10245;DHT22;5167;52.164;10.530;2023-05-14T03:49:52;12.80;15.60
10245;DHT22;5167;52.164;10.530;2023-05-14T03:52:17;12.80;16.50
10245;DHT22;5167;52.164;10.530;2023-05-14T03:54:43;12.80;16.80
10245;DHT22;5167;52.164;10.530;2023-05-14T03:57:08;12.80;17.00
10245;DHT22;5167;52.164;10.530;2023-05-14T03:59:34;12.70;16.50
10245;DHT22;5167;52.164;10.530;2023-05-14T04:01:59;12.80;17.10
10245;DHT22;5167;52.164;10.530;2023-05-14T04:04:25;12.80;17.50
10245;DHT22;5167;52.164;10.530;2023-05-14T04:06:50;12.80;17.90
10245;DHT22;5167;52.164;10.530;2023-05-14T04:09:16;12.80;17.00
10245;DHT22;5167;52.164;10.530;2023-05-14T04:11:41;12.70;18.00
10245;DHT22;5167;52.164;10.530;2023-05-14T04:14:07;12.70;17.70
10245;DHT22;5167;52.164;10.530;2023-05-14T04:16:32;12.90;18.10
10245;DHT22;5167;52.164;10.530;2023-05-14T04:19:00;12.80;18.10
10245;DHT22;5167;52.164;10.530;2023-05-14T04:21:26;12.80;18.20
10245;DHT22;5167;52.164;10.530;2023-05-14T04:23:51;12.80;17.60
10245;DHT22;5167;52.164;10.530;2023-05-14T04:26:17;12.80;18.10
10245;DHT22;5167;52.164;10.530;2023-05-14T04:28:42;12.80;17.50
10245;DHT22;5167;52.164;10.530;2023-05-14T04:31:08;12.80;17.70
10245;DHT22;5167;52.164;10.530;2023-05-14T04:33:33;12.80;16.80
10245;DHT22;5167;52.164;10.530;2023-05-14T04:35:59;12.80;17.30
10245;DHT22;5167;52.164;10.530;2023-05-14T04:38:25;12.70;17.00
10245;DHT22;5167;52.164;10.530;2023-05-14T04:40:50;12.80;16.80
10245;DHT22;5167;52.164;10.530;2023-05-14T04:43:16;12.70;16.70
10245;DHT22;5167;52.164;10.530;2023-05-14T04:45:41;12.70;17.20
10245;DHT22;5167;52.164;10.530;2023-05-14T04:48:07;12.70;17.70
10245;DHT22;5167;52.164;10.530;2023-05-14T04:50:33;12.70;17.30
10245;DHT22;5167;52.164;10.530;2023-05-14T04:52:59;12.70;18.30
10245;DHT22;5167;52.164;10.530;2023-05-14T04:55:24;12.80;18.40
10245;DHT22;5167;52.164;10.530;2023-05-14T04:57:50;12.90;17.60
10245;DHT22;5167;52.164;10.530;2023-05-14T05:00:16;12.90;17.30
10245;DHT22;5167;52.164;10.530;2023-05-14T05:02:42;13.00;18.00
10245;DHT22;5167;52.164;10.530;2023-05-14T05:05:07;13.00;17.30
10245;DHT22;5167;52.164;10.530;2023-05-14T05:07:33;13.00;17.90
10245;DHT22;5167;52.164;10.530;2023-05-14T05:09:59;13.10;17.70
10245;DHT22;5167;52.164;10.530;2023-05-14T05:12:24;13.10;17.70
10245;DHT22;5167;52.164;10.530;2023-05-14T05:14:50;13.10;16.50
10245;DHT22;5167;52.164;10.530;2023-05-14T05:17:19;13.20;16.30
10245;DHT22;5167;52.164;10.530;2023-05-14T05:19:44;13.30;17.50
10245;DHT22;5167;52.164;10.530;2023-05-14T05:22:10;13.40;17.00
10245;DHT22;5167;52.164;10.530;2023-05-14T05:24:35;13.40;16.00
10245;DHT22;5167;52.164;10.530;2023-05-14T05:27:01;13.50;16.30
10245;DHT22;5167;52.164;10.530;2023-05-14T05:29:26;13.40;16.20
10245;DHT22;5167;52.164;10.530;2023-05-14T05:31:52;13.60;16.20
10245;DHT22;5167;52.164;10.530;2023-05-14T05:34:17;13.60;16.50
10245;DHT22;5167;52.164;10.530;2023-05-14T05:36:43;13.60;15.70
10245;DHT22;5167;52.164;10.530;2023-05-14T05:39:09;13.70;16.10
10245;DHT22;5167;52.164;10.530;2023-05-14T05:41:34;13.80;14.90
10245;DHT22;5167;52.164;10.530;2023-05-14T05:44:00;13.90;15.90
10245;DHT22;5167;52.164;10.530;2023-05-14T05:46:25;13.90;14.80
10245;DHT22;5167;52.164;10.530;2023-05-14T05:48:50;14.00;15.70
10245;DHT22;5167;52.164;10.530;2023-05-14T05:51:17;14.10;14.80
10245;DHT22;5167;52.164;10.530;2023-05-14T05:53:43;14.10;13.30
10245;DHT22;5167;52.164;10.530;2023-05-14T05:56:08;14.10;13.70
10245;DHT22;5167;52.164;10.530;2023-05-14T05:58:34;14.20;12.80
10245;DHT22;5167;52.164;10.530;2023-05-14T06:00:59;14.20;12.70
10245;DHT22;5167;52.164;10.530;2023-05-14T06:03:25;14.20;12.40
10245;DHT22;5167;52.164;10.530;2023-05-14T06:05:51;14.20;12.90
10245;DHT22;5167;52.164;10.530;2023-05-14T06:08:17;14.20;12.20
10245;DHT22;5167;52.164;10.530;2023-05-14T06:10:42;14.30;12.60
10245;DHT22;5167;52.164;10.530;2023-05-14T06:13:08;14.30;13.10
10245;DHT22;5167;52.164;10.530;2023-05-14T06:15:33;14.30;12.40
10245;DHT22;5167;52.164;10.530;2023-05-14T06:17:59;14.50;14.00
10245;DHT22;5167;52.164;10.530;2023-05-14T06:20:24;14.40;13.90
10245;DHT22;5167;52.164;10.530;2023-05-14T06:22:50;14.40;13.40
10245;DHT22;5167;52.164;10.530;2023-05-14T06:25:15;14.40;14.30
10245;DHT22;5167;52.164;10.530;2023-05-14T06:27:41;14.50;14.50
10245;DHT22;5167;52.164;10.530;2023-05-14T06:30:11;14.50;13.90
10245;DHT22;5167;52.164;10.530;2023-05-14T06:32:37;14.50;14.00
10245;DHT22;5167;52.164;10.530;2023-05-14T06:35:03;14.60;14.30
10245;DHT22;5167;52.164;10.530;2023-05-14T06:37:28;14.70;14.00
10245;DHT22;5167;52.164;10.530;2023-05-14T06:39:54;14.70;13.50
10245;DHT22;5167;52.164;10.530;2023-05-14T06:42:19;14.80;14.00
10245;DHT22;5167;52.164;10.530;2023-05-14T06:44:45;14.80;13.30
10245;DHT22;5167;52.164;10.530;2023-05-14T06:47:10;14.90;12.50
10245;DHT22;5167;52.164;10.530;2023-05-14T06:49:36;15.00;13.30
10245;DHT22;5167;52.164;10.530;2023-05-14T06:52:02;15.00;13.60
10245;DHT22;5167;52.164;10.530;2023-05-14T06:54:28;15.00;12.50
10245;DHT22;5167;52.164;10.530;2023-05-14T06:56:53;15.10;12.90
10245;DHT22;5167;52.164;10.530;2023-05-14T06:59:19;15.10;12.50
10245;DHT22;5167;52.164;10.530;2023-05-14T07:01:44;15.20;12.50
10245;DHT22;5167;52.164;10.530;2023-05-14T07:04:10;15.40;12.50
10245;DHT22;5167;52.164;10.530;2023-05-14T07:06:35;15.30;11.70
10245;DHT22;5167;52.164;10.530;2023-05-14T07:09:01;15.30;11.20
10245;DHT22;5167;52.164;10.530;2023-05-14T07:11:27;15.40;11.30
10245;DHT22;5167;52.164;10.530;2023-05-14T07:13:53;15.40;11.80
10245;DHT22;5167;52.164;10.530;2023-05-14T07:16:18;15.50;11.60
10245;DHT22;5167;52.164;10.530;2023-05-14T07:18:44;15.60;11.60
10245;DHT22;5167;52.164;10.530;2023-05-14T07:21:10;15.80;12.40
10245;DHT22;5167;52.164;10.530;2023-05-14T07:23:35;15.80;10.60
10245;DHT22;5167;52.164;10.530;2023-05-14T07:26:05;15.90;10.10
10245;DHT22;5167;52.164;10.530;2023-05-14T07:28:31;16.00;9.90
10245;DHT22;5167;52.164;10.530;2023-05-14T07:30:57;16.20;10.20
10245;DHT22;5167;52.164;10.530;2023-05-14T07:33:23;16.20;10.20
10245;DHT22;5167;52.164;10.530;2023-05-14T07:35:49;16.40;9.50
10245;DHT22;5167;52.164;10.530;2023-05-14T07:38:15;16.40;10.10
10245;DHT22;5167;52.164;10.530;2023-05-14T07:40:41;16.60;10.00
10245;DHT22;5167;52.164;10.530;2023-05-14T07:43:07;16.70;9.70
10245;DHT22;5167;52.164;10.530;2023-05-14T07:45:33;16.80;9.70
10245;DHT22;5167;52.164;10.530;2023-05-14T07:48:00;16.90;8.20
10245;DHT22;5167;52.164;10.530;2023-05-14T07:50:25;16.90;8.10
10245;DHT22;5167;52.164;10.530;2023-05-14T07:52:51;16.90;7.60
10245;DHT22;5167;52.164;10.530;2023-05-14T07:55:16;17.00;7.20
10245;DHT22;5167;52.164;10.530;2023-05-14T07:57:42;17.00;7.00
10245;DHT22;5167;52.164;10.530;2023-05-14T08:00:07;17.00;6.20
10245;DHT22;5167;52.164;10.530;2023-05-14T08:02:33;17.00;5.00
10245;DHT22;5167;52.164;10.530;2023-05-14T08:04:59;17.10;5.00
10245;DHT22;5167;52.164;10.530;2023-05-14T08:07:24;17.10;5.00
10245;DHT22;5167;52.164;10.530;2023-05-14T08:09:51;17.10;5.00
10245;DHT22;5167;52.164;10.530;2023-05-14T08:12:17;17.20;5.00
10245;DHT22;5167;52.164;10.530;2023-05-14T08:14:43;17.20;5.00
10245;DHT22;5167;52.164;10.530;2023-05-14T08:17:08;17.30;5.00
10245;DHT22;5167;52.164;10.530;2023-05-14T08:19:34;17.30;5.00
10245;DHT22;5167;52.164;10.530;2023-05-14T08:21:59;17.30;5.00
10245;DHT22;5167;52.164;10.530;2023-05-14T08:24:25;17.40;5.00
10245;DHT22;5167;52.164;10.530;2023-05-14T08:26:50;17.40;5.00
10245;DHT22;5167;52.164;10.530;2023-05-14T08:29:16;17.50;5.00
10245;DHT22;5167;52.164;10.530;2023-05-14T08:31:42;17.60;5.00
10245;DHT22;5167;52.164;10.530;2023-05-14T08:34:07;17.60;5.00
10245;DHT22;5167;52.164;10.530;2023-05-14T08:36:33;17.70;5.00
10245;DHT22;5167;52.164;10.530;2023-05-14T08:38:58;17.80;5.00
10245;DHT22;5167;52.164;10.530;2023-05-14T08:41:24;17.80;5.00
10245;DHT22;5167;52.164;10.530;2023-05-14T08:44:12;17.90;5.00
10245;DHT22;5167;52.164;10.530;2023-05-14T08:46:38;18.00;5.00
10245;DHT22;5167;52.164;10.530;2023-05-14T08:49:40;18.10;5.00
10245;DHT22;5167;52.164;10.530;2023-05-14T08:52:06;18.20;5.00
10245;DHT22;5167;52.164;10.530;2023-05-14T08:54:33;18.20;5.00
10245;DHT22;5167;52.164;10.530;2023-05-14T08:56:59;18.30;5.00
10245;DHT22;5167;52.164;10.530;2023-05-14T08:59:25;18.40;5.00
10245;DHT22;5167;52.164;10.530;2023-05-14T09:01:54;18.70;5.00
10245;DHT22;5167;52.164;10.530;2023-05-14T09:04:22;18.80;5.00
10245;DHT22;5167;52.164;10.530;2023-05-14T09:06:52;19.00;5.00
10245;DHT22;5167;52.164;10.530;2023-05-14T09:09:18;19.00;5.00
10245;DHT22;5167;52.164;10.530;2023-05-14T09:11:47;19.20;5.00
10245;DHT22;5167;52.164;10.530;2023-05-14T09:14:13;19.40;5.00
10245;DHT22;5167;52.164;10.530;2023-05-14T09:16:39;19.50;5.00
10245;DHT22;5167;52.164;10.530;2023-05-14T09:19:06;19.50;5.00
10245;DHT22;5167;52.164;10.530;2023-05-14T09:21:33;19.60;5.00
10245;DHT22;5167;52.164;10.530;2023-05-14T09:23:59;19.70;5.00
10245;DHT22;5167;52.164;10.530;2023-05-14T09:26:26;19.70;5.00
10245;DHT22;5167;52.164;10.530;2023-05-14T09:28:56;19.90;5.00
10245;DHT22;5167;52.164;10.530;2023-05-14T09:31:24;20.00;5.00
10245;DHT22;5167;52.164;10.530;2023-05-14T09:33:51;20.20;5.00
10245;DHT22;5167;52.164;10.530;2023-05-14T09:36:17;20.30;5.00
10245;DHT22;5167;52.164;10.530;2023-05-14T09:38:43;20.40;5.00
10245;DHT22;5167;52.164;10.530;2023-05-14T09:41:08;20.50;5.00
10245;DHT22;5167;52.164;10.530;2023-05-14T09:43:34;20.50;5.00
10245;DHT22;5167;52.164;10.530;2023-05-14T09:45:59;20.60;5.00
10245;DHT22;5167;52.164;10.530;2023-05-14T09:48:25;20.60;5.00
10245;DHT22;5167;52.164;10.530;2023-05-14T09:50:50;20.80;5.00
10245;DHT22;5167;52.164;10.530;2023-05-14T09:53:17;20.90;5.00
10245;DHT22;5167;52.164;10.530;2023-05-14T09:55:43;21.00;5.00
10245;DHT22;5167;52.164;10.530;2023-05-14T09:58:09;21.10;5.00
10245;DHT22;5167;52.164;10.530;2023-05-14T10:00:35;21.10;5.00
10245;DHT22;5167;52.164;10.530;2023-05-14T10:03:05;21.20;5.00
10245;DHT22;5167;52.164;10.530;2023-05-14T10:05:35;21.30;5.00
10245;DHT22;5167;52.164;10.530;2023-05-14T10:08:12;21.40;5.00
10245;DHT22;5167;52.164;10.530;2023-05-14T10:10:38;21.50;5.00
10245;DHT22;5167;52.164;10.530;2023-05-14T10:13:07;21.60;5.00
10245;DHT22;5167;52.164;10.530;2023-05-14T10:15:39;21.70;5.00
10245;DHT22;5167;52.164;10.530;2023-05-14T10:18:11;21.90;5.00
10245;DHT22;5167;52.164;10.530;2023-05-14T10:20:40;22.10;5.00
10245;DHT22;5167;52.164;10.530;2023-05-14T10:23:06;22.10;5.00
10245;DHT22;5167;52.164;10.530;2023-05-14T10:25:33;22.40;5.00
10245;DHT22;5167;52.164;10.530;2023-05-14T10:27:59;22.50;5.00
10245;DHT22;5167;52.164;10.530;2023-05-14T10:30:25;22.60;5.00
10245;DHT22;5167;52.164;10.530;2023-05-14T10:33:13;22.70;5.00
10245;DHT22;5167;52.164;10.530;2023-05-14T10:38:25;22.90;5.00
10245;DHT22;5167;52.164;10.530;2023-05-14T10:40:55;23.10;5.00
10245;DHT22;5167;52.164;10.530;2023-05-14T10:43:24;23.20;5.00
10245;DHT22;5167;52.164;10.530;2023-05-14T10:45:51;23.40;5.00
10245;DHT22;5167;52.164;10.530;2023-05-14T10:48:17;23.40;5.00
10245;DHT22;5167;52.164;10.530;2023-05-14T10:50:43;23.40;5.00
10245;DHT22;5167;52.164;10.530;2023-05-14T10:53:12;23.50;5.00
10245;DHT22;5167;52.164;10.530;2023-05-14T10:55:38;23.40;5.00
10245;DHT22;5167;52.164;10.530;2023-05-14T10:58:04;23.30;5.00
10245;DHT22;5167;52.164;10.530;2023-05-14T11:00:35;23.20;5.00
10245;DHT22;5167;52.164;10.530;2023-05-14T11:03:03;23.30;5.00
10245;DHT22;5167;52.164;10.530;2023-05-14T11:05:30;23.10;5.00
10245;DHT22;5167;52.164;10.530;2023-05-14T11:07:56;23.10;5.00
10245;DHT22;5167;52.164;10.530;2023-05-14T11:10:22;23.10;5.00
10245;DHT22;5167;52.164;10.530;2023-05-14T11:12:50;23.10;5.00
10245;DHT22;5167;52.164;10.530;2023-05-14T11:15:21;23.20;5.00
10245;DHT22;5167;52.164;10.530;2023-05-14T11:17:48;23.20;5.00
10245;DHT22;5167;52.164;10.530;2023-05-14T11:20:14;23.20;5.00
10245;DHT22;5167;52.164;10.530;2023-05-14T11:22:42;23.20;5.00
10245;DHT22;5167;52.164;10.530;2023-05-14T11:25:09;23.30;5.00
10245;DHT22;5167;52.164;10.530;2023-05-14T11:27:37;23.40;5.00
10245;DHT22;5167;52.164;10.530;2023-05-14T11:30:03;23.40;5.00
10245;DHT22;5167;52.164;10.530;2023-05-14T11:32:31;23.50;5.00
10245;DHT22;5167;52.164;10.530;2023-05-14T11:34:56;23.50;5.00
10245;DHT22;5167;52.164;10.530;2023-05-14T11:37:22;23.50;5.00
10245;DHT22;5167;52.164;10.530;2023-05-14T11:39:50;23.50;5.00
10245;DHT22;5167;52.164;10.530;2023-05-14T11:42:16;23.50;5.00
10245;DHT22;5167;52.164;10.530;2023-05-14T11:44:48;23.60;5.00
10245;DHT22;5167;52.164;10.530;2023-05-14T11:47:15;23.60;5.00
10245;DHT22;5167;52.164;10.530;2023-05-14T11:49:41;23.50;5.00
10245;DHT22;5167;52.164;10.530;2023-05-14T11:52:10;23.50;5.00
10245;DHT22;5167;52.164;10.530;2023-05-14T11:54:36;23.50;5.00
10245;DHT22;5167;52.164;10.530;2023-05-14T11:57:31;23.50;5.00
10245;DHT22;5167;52.164;10.530;2023-05-14T11:59:57;23.50;5.00
10245;DHT22;5167;52.164;10.530;2023-05-14T12:02:25;23.60;5.00
10245;DHT22;5167;52.164;10.530;2023-05-14T12:04:52;23.50;5.00
10245;DHT22;5167;52.164;10.530;2023-05-14T12:07:18;23.50;5.00
10245;DHT22;5167;52.164;10.530;2023-05-14T12:09:47;23.40;5.00
10245;DHT22;5167;52.164;10.530;2023-05-14T12:12:16;23.40;5.00
10245;DHT22;5167;52.164;10.530;2023-05-14T12:14:42;23.40;5.00
10245;DHT22;5167;52.164;10.530;2023-05-14T12:17:15;23.50;5.00
10245;DHT22;5167;52.164;10.530;2023-05-14T12:19:41;23.50;5.00
10245;DHT22;5167;52.164;10.530;2023-05-14T12:22:08;23.50;5.00
10245;DHT22;5167;52.164;10.530;2023-05-14T12:24:34;23.50;5.00
10245;DHT22;5167;52.164;10.530;2023-05-14T12:27:00;23.50;5.00
10245;DHT22;5167;52.164;10.530;2023-05-14T12:29:26;23.50;5.00
10245;DHT22;5167;52.164;10.530;2023-05-14T12:31:52;23.50;5.00
10245;DHT22;5167;52.164;10.530;2023-05-14T12:34:17;23.60;5.00
10245;DHT22;5167;52.164;10.530;2023-05-14T12:36:43;23.50;5.00
10245;DHT22;5167;52.164;10.530;2023-05-14T12:39:10;23.50;5.00
10245;DHT22;5167;52.164;10.530;2023-05-14T12:41:36;23.50;5.00
10245;DHT22;5167;52.164;10.530;2023-05-14T12:44:03;23.50;5.00
10245;DHT22;5167;52.164;10.530;2023-05-14T12:46:29;23.40;5.00
10245;DHT22;5167;52.164;10.530;2023-05-14T12:48:55;23.30;5.00
10245;DHT22;5167;52.164;10.530;2023-05-14T12:51:20;23.00;5.00
10245;DHT22;5167;52.164;10.530;2023-05-14T12:53:46;22.80;5.00
10245;DHT22;5167;52.164;10.530;2023-05-14T12:56:12;22.70;5.00
10245;DHT22;5167;52.164;10.530;2023-05-14T12:58:38;22.60;5.00
10245;DHT22;5167;52.164;10.530;2023-05-14T13:01:04;22.40;5.00
10245;DHT22;5167;52.164;10.530;2023-05-14T13:03:29;22.30;5.00
10245;DHT22;5167;52.164;10.530;2023-05-14T13:05:55;22.20;5.00
10245;DHT22;5167;52.164;10.530;2023-05-14T13:08:24;22.00;5.00
10245;DHT22;5167;52.164;10.530;2023-05-14T13:10:51;21.90;5.00
10245;DHT22;5167;52.164;10.530;2023-05-14T13:13:17;21.80;5.00
10245;DHT22;5167;52.164;10.530;2023-05-14T13:15:42;21.80;5.00
10245;DHT22;5167;52.164;10.530;2023-05-14T13:18:08;21.70;5.00
10245;DHT22;5167;52.164;10.530;2023-05-14T13:20:33;21.70;5.00
10245;DHT22;5167;52.164;10.530;2023-05-14T13:22:59;21.60;5.00
10245;DHT22;5167;52.164;10.530;2023-05-14T13:25:25;21.60;5.00
10245;DHT22;5167;52.164;10.530;2023-05-14T13:27:51;21.50;5.00
10245;DHT22;5167;52.164;10.530;2023-05-14T13:30:17;21.40;5.00
10245;DHT22;5167;52.164;10.530;2023-05-14T13:32:42;21.40;5.00
10245;DHT22;5167;52.164;10.530;2023-05-14T13:35:08;21.40;5.00
10245;DHT22;5167;52.164;10.530;2023-05-14T13:37:34;21.40;5.00
10245;DHT22;5167;52.164;10.530;2023-05-14T13:40:00;21.30;5.00
10245;DHT22;5167;52.164;10.530;2023-05-14T13:42:25;21.30;5.00
10245;DHT22;5167;52.164;10.530;2023-05-14T13:44:51;21.30;5.00
10245;DHT22;5167;52.164;10.530;2023-05-14T13:47:16;21.30;5.00
10245;DHT22;5167;52.164;10.530;2023-05-14T13:49:42;21.30;5.00
10245;DHT22;5167;52.164;10.530;2023-05-14T13:52:07;21.30;5.00
10245;DHT22;5167;52.164;10.530;2023-05-14T13:54:33;21.40;5.00
10245;DHT22;5167;52.164;10.530;2023-05-14T13:56:58;21.40;5.00
10245;DHT22;5167;52.164;10.530;2023-05-14T13:59:24;21.40;5.00
10245;DHT22;5167;52.164;10.530;2023-05-14T14:01:50;21.40;5.00
10245;DHT22;5167;52.164;10.530;2023-05-14T14:04:16;21.40;5.00
10245;DHT22;5167;52.164;10.530;2023-05-14T14:06:42;21.50;5.00
10245;DHT22;5167;52.164;10.530;2023-05-14T14:09:07;21.50;5.00
10245;DHT22;5167;52.164;10.530;2023-05-14T14:11:34;21.50;5.00
10245;DHT22;5167;52.164;10.530;2023-05-14T14:13:59;21.50;5.00
10245;DHT22;5167;52.164;10.530;2023-05-14T14:16:25;21.70;5.00
10245;DHT22;5167;52.164;10.530;2023-05-14T14:18:50;21.80;5.00
10245;DHT22;5167;52.164;10.530;2023-05-14T14:21:16;21.80;5.00
10245;DHT22;5167;52.164;10.530;2023-05-14T14:23:44;21.90;5.00
10245;DHT22;5167;52.164;10.530;2023-05-14T14:26:10;21.90;5.00
10245;DHT22;5167;52.164;10.530;2023-05-14T14:28:35;21.90;5.00
10245;DHT22;5167;52.164;10.530;2023-05-14T14:31:01;22.00;5.00
10245;DHT22;5167;52.164;10.530;2023-05-14T14:33:27;22.10;5.00
10245;DHT22;5167;52.164;10.530;2023-05-14T14:35:53;22.10;5.00
10245;DHT22;5167;52.164;10.530;2023-05-14T14:38:18;22.20;5.00
10245;DHT22;5167;52.164;10.530;2023-05-14T14:40:44;22.20;5.00
10245;DHT22;5167;52.164;10.530;2023-05-14T14:43:10;22.20;5.00
10245;DHT22;5167;52.164;10.530;2023-05-14T14:45:36;22.30;5.00
10245;DHT22;5167;52.164;10.530;2023-05-14T14:48:21;22.30;5.00
10245;DHT22;5167;52.164;10.530;2023-05-14T14:50:47;22.40;5.00
10245;DHT22;5167;52.164;10.530;2023-05-14T14:53:12;22.40;5.00
10245;DHT22;5167;52.164;10.530;2023-05-14T14:55:38;22.40;5.00
10245;DHT22;5167;52.164;10.530;2023-05-14T14:58:03;22.30;5.00
10245;DHT22;5167;52.164;10.530;2023-05-14T15:00:29;22.40;5.00
10245;DHT22;5167;52.164;10.530;2023-05-14T15:02:54;22.40;5.00
10245;DHT22;5167;52.164;10.530;2023-05-14T15:05:20;22.50;5.00
10245;DHT22;5167;52.164;10.530;2023-05-14T15:07:45;22.40;5.00
10245;DHT22;5167;52.164;10.530;2023-05-14T15:10:11;22.50;5.00
10245;DHT22;5167;52.164;10.530;2023-05-14T15:12:36;22.60;5.00
10245;DHT22;5167;52.164;10.530;2023-05-14T15:15:02;22.50;5.00
10245;DHT22;5167;52.164;10.530;2023-05-14T15:17:28;22.50;5.00
10245;DHT22;5167;52.164;10.530;2023-05-14T15:19:53;22.50;5.00
10245;DHT22;5167;52.164;10.530;2023-05-14T15:22:19;22.60;5.00
10245;DHT22;5167;52.164;10.530;2023-05-14T15:24:44;22.60;5.00
10245;DHT22;5167;52.164;10.530;2023-05-14T15:27:10;22.60;5.00
10245;DHT22;5167;52.164;10.530;2023-05-14T15:29:35;22.60;5.00
10245;DHT22;5167;52.164;10.530;2023-05-14T15:32:02;22.60;5.00
10245;DHT22;5167;52.164;10.530;2023-05-14T15:34:27;22.60;5.00
10245;DHT22;5167;52.164;10.530;2023-05-14T15:36:53;22.50;5.00
10245;DHT22;5167;52.164;10.530;2023-05-14T15:39:18;22.60;5.00